Time;durP1;ratioP1;P1;durP2;ratioP2;P2;SDS_P1;SDS_P2;PMS_P1;PMS_P2;Temp;Humidity;BMP_temperature;BMP_pressure;BME280_temperature;BME280_humidity;BME280_pressure;Samples;Min_cycle;Max_cycle;Signal;HPM_P1;HPM_P2
2020/12/21 00:02:14;;;;;;;10.23;2.63;;;6.10;99.90;;;;;;5002452;28;20034;-61
2020/12/21 00:04:41;;;;;;;13.15;2.60;;;6.10;99.90;;;;;;4997050;28;20033;-61
2020/12/21 00:07:06;;;;;;;6.60;2.53;;;6.00;99.90;;;;;;4999488;28;20398;-61
2020/12/21 00:09:32;;;;;;;12.10;2.53;;;6.00;99.90;;;;;;5000232;28;20495;-61
2020/12/21 00:11:57;;;;;;;11.23;3.05;;;6.00;99.90;;;;;;5000973;28;20044;-60
2020/12/21 00:14:23;;;;;;;9.43;3.00;;;6.00;99.90;;;;;;4995526;28;20368;-61
2020/12/21 00:16:51;;;;;;;11.75;4.15;;;6.00;99.90;;;;;;4997706;28;20037;-61
2020/12/21 00:19:18;;;;;;;15.40;3.08;;;6.10;99.90;;;;;;5003451;28;20040;-60
2020/12/21 00:21:44;;;;;;;17.42;3.50;;;6.10;99.90;;;;;;5003756;28;20021;-60
2020/12/21 00:24:10;;;;;;;12.48;2.97;;;6.10;99.90;;;;;;5002014;28;20030;-61
2020/12/21 00:26:36;;;;;;;6.75;3.13;;;6.10;99.90;;;;;;5001221;28;20040;-60
2020/12/21 00:29:02;;;;;;;13.73;3.70;;;6.10;99.90;;;;;;5002383;28;20038;-61
2020/12/21 00:31:29;;;;;;;9.13;3.13;;;6.20;99.90;;;;;;5001857;28;20046;-59
2020/12/21 00:33:56;;;;;;;9.60;2.70;;;6.10;99.90;;;;;;5002254;28;20036;-60
2020/12/21 00:36:22;;;;;;;10.32;2.70;;;6.10;99.90;;;;;;4999729;28;20037;-61
2020/12/21 00:38:51;;;;;;;10.88;2.30;;;6.10;99.90;;;;;;5000314;28;20129;-60
2020/12/21 00:41:19;;;;;;;13.23;3.60;;;6.10;99.90;;;;;;5002860;28;20061;-60
2020/12/21 00:43:45;;;;;;;10.75;2.80;;;6.10;99.90;;;;;;4999933;28;20463;-60
2020/12/21 00:46:16;;;;;;;8.05;2.25;;;6.00;99.90;;;;;;5002026;28;20034;-61
2020/12/21 00:48:42;;;;;;;16.58;3.08;;;6.10;99.90;;;;;;5000306;28;20034;-60
2020/12/21 00:51:09;;;;;;;14.65;2.17;;;6.10;99.90;;;;;;5002810;28;20026;-60
2020/12/21 00:53:35;;;;;;;12.20;2.35;;;6.00;99.90;;;;;;5005792;28;20049;-61
2020/12/21 00:56:05;;;;;;;15.77;2.80;;;6.10;99.90;;;;;;5000169;28;20050;-60
2020/12/21 00:58:35;;;;;;;8.00;2.28;;;6.10;99.90;;;;;;5001448;28;20379;-60
2020/12/21 01:01:09;;;;;;;14.90;2.70;;;6.10;99.90;;;;;;4999518;28;20038;-62
2020/12/21 01:03:36;;;;;;;6.78;2.55;;;6.10;99.90;;;;;;4996008;28;20034;-60
2020/12/21 01:06:02;;;;;;;11.32;2.05;;;6.00;99.90;;;;;;5002530;28;20116;-61
2020/12/21 01:08:28;;;;;;;9.55;2.25;;;6.00;99.90;;;;;;4999491;28;20041;-60
2020/12/21 01:10:53;;;;;;;9.27;2.83;;;6.00;99.90;;;;;;5004193;28;20628;-61
2020/12/21 01:13:19;;;;;;;6.82;1.83;;;6.00;99.90;;;;;;5000611;28;20045;-60
2020/12/21 01:15:44;;;;;;;10.05;2.65;;;6.00;99.90;;;;;;5002524;28;20045;-61
2020/12/21 01:18:10;;;;;;;10.90;2.22;;;6.00;99.90;;;;;;4999480;28;20062;-61
2020/12/21 01:20:36;;;;;;;7.93;2.60;;;6.00;99.90;;;;;;5003333;28;20030;-61
2020/12/21 01:23:02;;;;;;;16.40;2.20;;;6.00;99.90;;;;;;4999600;28;20030;-60
2020/12/21 01:25:28;;;;;;;15.40;2.63;;;6.00;99.90;;;;;;5000605;28;20046;-61
2020/12/21 01:27:53;;;;;;;14.02;2.72;;;5.90;99.90;;;;;;5001300;28;20037;-60
2020/12/21 01:30:19;;;;;;;15.50;3.40;;;5.80;99.90;;;;;;4999313;28;20035;-60
2020/12/21 01:32:44;;;;;;;6.85;2.08;;;5.80;99.90;;;;;;5003013;28;20034;-60
2020/12/21 01:35:10;;;;;;;11.77;2.53;;;5.80;99.90;;;;;;5001939;28;20403;-61
2020/12/21 01:37:36;;;;;;;12.25;2.15;;;5.90;99.90;;;;;;4999767;28;20146;-62
2020/12/21 01:40:04;;;;;;;6.25;1.92;;;5.90;99.90;;;;;;5002821;28;20049;-62
2020/12/21 01:42:29;;;;;;;8.27;2.90;;;5.90;99.90;;;;;;4999661;28;20118;-61
2020/12/21 01:44:55;;;;;;;13.80;2.50;;;5.80;99.90;;;;;;5000392;28;20139;-60
2020/12/21 01:47:21;;;;;;;13.32;2.10;;;5.80;99.90;;;;;;5000382;28;20030;-60
2020/12/21 01:49:47;;;;;;;8.80;2.20;;;5.80;99.90;;;;;;4998987;28;20042;-61
2020/12/21 01:52:16;;;;;;;8.63;1.88;;;5.90;99.90;;;;;;5001615;28;20660;-61
2020/12/21 01:54:44;;;;;;;13.93;2.55;;;5.80;99.90;;;;;;4999842;28;20038;-61
2020/12/21 01:57:09;;;;;;;11.73;2.10;;;5.80;99.90;;;;;;5001937;28;20026;-61
2020/12/21 01:59:35;;;;;;;11.57;2.33;;;5.80;99.90;;;;;;4999065;28;20104;-61
2020/12/21 02:02:01;;;;;;;15.05;2.58;;;5.80;99.90;;;;;;4998128;28;20045;-59
2020/12/21 02:04:26;;;;;;;12.98;2.10;;;5.80;99.90;;;;;;5001101;28;20057;-61
2020/12/21 02:06:58;;;;;;;7.28;2.25;;;5.80;99.90;;;;;;4998927;28;20049;-60
2020/12/21 02:09:24;;;;;;;10.80;2.53;;;5.70;99.90;;;;;;5001050;28;20380;-61
2020/12/21 02:11:49;;;;;;;9.75;2.53;;;5.70;99.90;;;;;;5000309;28;20106;-61
2020/12/21 02:14:15;;;;;;;8.68;1.88;;;5.70;99.90;;;;;;4999822;28;20042;-61
2020/12/21 02:16:40;;;;;;;12.15;3.55;;;5.70;99.90;;;;;;4997201;28;20126;-61
2020/12/21 02:19:06;;;;;;;17.60;3.13;;;5.70;99.90;;;;;;5002469;28;20121;-61
2020/12/21 02:21:31;;;;;;;30.83;3.92;;;5.70;99.90;;;;;;4998743;28;22323;-61
2020/12/21 02:23:57;;;;;;;8.88;2.42;;;5.70;99.90;;;;;;5001685;28;20034;-61
2020/12/21 02:26:23;;;;;;;6.45;2.13;;;5.70;99.90;;;;;;4999271;28;20033;-61
2020/12/21 02:28:57;;;;;;;14.60;2.40;;;5.70;99.90;;;;;;5000482;28;20030;-61
2020/12/21 02:31:23;;;;;;;15.85;3.65;;;5.70;99.90;;;;;;4999486;28;20391;-60
2020/12/21 02:33:49;;;;;;;8.75;2.95;;;5.80;99.90;;;;;;4999732;28;20070;-60
2020/12/21 02:36:15;;;;;;;7.18;1.50;;;5.80;99.90;;;;;;5001866;28;20061;-61
2020/12/21 02:38:41;;;;;;;12.48;2.65;;;5.80;99.90;;;;;;5001547;28;20038;-60
2020/12/21 02:41:07;;;;;;;7.80;1.80;;;5.90;99.90;;;;;;4997489;28;20030;-60
2020/12/21 02:43:33;;;;;;;16.75;3.67;;;5.80;99.90;;;;;;4997612;28;20050;-60
2020/12/21 02:45:59;;;;;;;9.65;2.17;;;5.90;99.90;;;;;;5001288;28;20077;-60
2020/12/21 02:48:24;;;;;;;12.23;2.67;;;5.80;99.90;;;;;;4998488;28;20073;-61
2020/12/21 02:50:50;;;;;;;8.70;2.25;;;5.80;99.90;;;;;;5000433;28;20097;-62
2020/12/21 02:53:16;;;;;;;12.38;2.42;;;5.70;99.90;;;;;;5004015;28;20088;-61
2020/12/21 02:55:42;;;;;;;8.82;2.10;;;5.80;99.90;;;;;;4998826;28;20042;-62
2020/12/21 02:58:08;;;;;;;14.90;3.55;;;5.70;99.90;;;;;;5000761;28;20041;-60
2020/12/21 03:00:34;;;;;;;7.80;2.15;;;5.80;99.90;;;;;;4997525;28;20849;-61
2020/12/21 03:03:01;;;;;;;13.50;3.42;;;5.70;99.90;;;;;;4996193;28;20046;-61
2020/12/21 03:05:27;;;;;;;8.68;1.77;;;5.70;99.90;;;;;;4999646;28;20038;-60
2020/12/21 03:07:52;;;;;;;11.45;2.28;;;5.70;99.90;;;;;;5001298;28;20045;-60
2020/12/21 03:10:18;;;;;;;6.78;1.77;;;5.70;99.90;;;;;;4999161;28;20030;-61
2020/12/21 03:12:43;;;;;;;8.00;2.10;;;5.70;99.90;;;;;;4998729;28;20045;-59
2020/12/21 03:15:09;;;;;;;10.32;2.47;;;5.60;99.90;;;;;;5000010;28;20029;-60
2020/12/21 03:17:35;;;;;;;12.20;2.78;;;5.60;99.90;;;;;;4997515;28;20038;-61
2020/12/21 03:20:00;;;;;;;8.15;2.53;;;5.60;99.90;;;;;;5001279;28;20033;-61
2020/12/21 03:22:26;;;;;;;8.73;1.83;;;5.60;99.90;;;;;;4997058;28;20038;-61
2020/12/21 03:24:51;;;;;;;11.73;2.35;;;5.60;99.90;;;;;;4998170;28;20042;-60
2020/12/21 03:27:17;;;;;;;9.23;3.03;;;5.70;99.90;;;;;;4999515;28;20034;-60
2020/12/21 03:29:43;;;;;;;15.82;3.00;;;5.70;99.90;;;;;;4998797;28;20038;-60
2020/12/21 03:32:09;;;;;;;9.02;2.60;;;5.60;99.90;;;;;;4998259;28;20062;-59
2020/12/21 03:34:35;;;;;;;14.68;2.30;;;5.70;99.90;;;;;;5000494;28;20125;-60
2020/12/21 03:37:00;;;;;;;12.65;2.97;;;5.70;99.90;;;;;;4997037;28;20436;-59
2020/12/21 03:39:26;;;;;;;9.00;1.75;;;5.70;99.90;;;;;;5000793;28;20510;-60
2020/12/21 03:41:52;;;;;;;13.07;2.50;;;5.70;99.90;;;;;;4996212;28;20069;-61
2020/12/21 03:44:17;;;;;;;14.93;2.03;;;5.70;99.90;;;;;;4999461;28;20026;-60
2020/12/21 03:46:43;;;;;;;12.88;2.70;;;5.70;99.90;;;;;;4998594;28;20038;-61
2020/12/21 03:49:08;;;;;;;8.75;2.53;;;5.70;99.90;;;;;;4996761;28;20033;-61
2020/12/21 03:51:34;;;;;;;12.10;2.78;;;5.70;99.90;;;;;;4999996;28;20069;-60
2020/12/21 03:53:59;;;;;;;11.23;3.08;;;5.70;99.90;;;;;;4996680;28;20034;-60
2020/12/21 03:56:25;;;;;;;10.23;1.60;;;5.60;99.90;;;;;;4993236;28;20038;-60
2020/12/21 03:58:50;;;;;;;8.70;1.88;;;5.60;99.90;;;;;;5003529;28;20050;-60
2020/12/21 04:01:16;;;;;;;11.25;1.95;;;5.60;99.90;;;;;;4995116;28;20531;-60
2020/12/21 04:03:41;;;;;;;9.05;2.25;;;5.60;99.90;;;;;;4998938;28;20038;-59
2020/12/21 04:06:07;;;;;;;9.20;1.40;;;5.50;99.90;;;;;;4996976;28;20124;-61
2020/12/21 04:08:32;;;;;;;9.02;2.92;;;5.60;99.90;;;;;;4997719;28;20117;-60
2020/12/21 04:10:59;;;;;;;9.57;2.08;;;5.60;99.90;;;;;;5000550;28;20041;-60
2020/12/21 04:13:26;;;;;;;9.23;2.20;;;5.50;99.90;;;;;;4992863;28;20542;-61
2020/12/21 04:15:52;;;;;;;11.57;2.47;;;5.50;99.90;;;;;;4998580;28;20084;-62
2020/12/21 04:18:18;;;;;;;6.30;2.53;;;5.40;99.90;;;;;;4996536;28;20034;-61
2020/12/21 04:20:43;;;;;;;14.55;2.20;;;5.40;99.90;;;;;;4999264;28;20116;-60
2020/12/21 04:23:09;;;;;;;12.63;2.90;;;5.40;99.90;;;;;;4999871;28;20038;-61
2020/12/21 04:25:34;;;;;;;10.55;2.13;;;5.50;99.90;;;;;;4999344;28;20057;-61
2020/12/21 04:28:00;;;;;;;10.43;2.10;;;5.40;99.90;;;;;;4996602;28;20419;-60
2020/12/21 04:30:25;;;;;;;12.40;3.30;;;5.40;99.90;;;;;;5000378;28;20124;-61
2020/12/21 04:32:50;;;;;;;9.35;2.03;;;5.40;99.90;;;;;;4996640;28;20515;-60
2020/12/21 04:35:16;;;;;;;10.52;2.30;;;5.50;99.90;;;;;;4999420;28;20037;-60
2020/12/21 04:37:42;;;;;;;14.00;2.65;;;5.40;99.90;;;;;;5000169;28;20041;-61
2020/12/21 04:40:07;;;;;;;13.77;2.75;;;5.40;99.90;;;;;;4998681;28;20058;-62
2020/12/21 04:42:48;;;;;;;11.88;2.42;;;5.50;99.90;;;;;;4997305;28;20069;-60
2020/12/21 04:45:14;;;;;;;;;;;5.50;99.90;;;;;;4998092;28;20034;-59
2020/12/21 04:47:43;;;;;;;13.75;2.95;;;5.50;99.90;;;;;;4998277;28;19988;-60
2020/12/21 04:50:11;;;;;;;7.93;2.75;;;5.40;99.90;;;;;;4998380;28;20037;-60
2020/12/21 04:52:50;;;;;;;17.23;3.22;;;5.40;99.90;;;;;;5000890;28;20572;-60
2020/12/21 04:55:21;;;;;;;13.38;2.70;;;5.50;99.90;;;;;;4998904;28;20105;-60
2020/12/21 04:58:04;;;;;;;9.38;2.65;;;5.50;99.90;;;;;;4999981;28;20462;-59
2020/12/21 05:00:33;;;;;;;15.85;2.95;;;5.50;99.90;;;;;;4997572;28;20062;-61
2020/12/21 05:03:00;;;;;;;9.93;2.38;;;5.50;99.90;;;;;;5003455;28;20026;-60
2020/12/21 05:05:31;;;;;;;6.30;2.47;;;5.50;99.90;;;;;;5004051;28;20042;-60
2020/12/21 05:08:06;;;;;;;12.90;2.70;;;5.50;99.90;;;;;;4997351;28;20069;-59
2020/12/21 05:10:32;;;;;;;14.20;2.50;;;5.50;99.90;;;;;;5000986;28;20052;-61
2020/12/21 05:13:01;;;;;;;15.13;3.85;;;5.60;99.90;;;;;;5000037;28;20402;-60
2020/12/21 05:15:27;;;;;;;15.77;3.67;;;5.60;99.90;;;;;;5006880;28;20050;-60
2020/12/21 05:18:25;;;;;;;9.85;2.60;;;5.60;99.90;;;;;;4999871;28;20071;-62
2020/12/21 05:20:56;;;;;;;8.65;2.70;;;5.60;99.90;;;;;;4997911;28;20085;-63
2020/12/21 05:23:21;;;;;;;9.50;2.35;;;5.70;99.90;;;;;;4995865;28;20100;-61
2020/12/21 05:26:00;;;;;;;10.30;2.58;;;5.70;99.90;;;;;;5002430;28;20086;-60
2020/12/21 05:28:31;;;;;;;10.38;2.30;;;5.70;99.90;;;;;;4994089;28;20122;-60
2020/12/21 05:31:00;;;;;;;16.10;3.33;;;5.60;99.90;;;;;;4995820;28;21034;-60
2020/12/21 05:33:26;;;;;;;18.45;2.60;;;5.60;99.90;;;;;;4994821;28;20050;-60
2020/12/21 05:35:54;;;;;;;11.82;2.20;;;5.60;99.90;;;;;;5002133;28;20041;-60
2020/12/21 05:38:29;;;;;;;10.40;2.55;;;5.70;99.90;;;;;;4995328;28;20042;-60
2020/12/21 05:41:07;;;;;;;14.45;2.45;;;5.70;99.90;;;;;;5001912;28;20533;-61
2020/12/21 05:43:33;;;;;;;8.77;1.90;;;5.70;99.90;;;;;;5000518;28;20041;-59
2020/12/21 05:46:15;;;;;;;11.75;3.22;;;5.80;99.90;;;;;;4999818;28;20038;-60
2020/12/21 05:48:51;;;;;;;16.13;3.05;;;5.90;99.90;;;;;;5001416;28;20092;-60
2020/12/21 05:51:22;;;;;;;14.80;2.65;;;5.90;99.90;;;;;;4999058;28;20150;-61
2020/12/21 05:53:52;;;;;;;11.38;2.38;;;5.90;99.90;;;;;;5002132;28;20046;-61
2020/12/21 05:56:20;;;;;;;18.38;4.30;;;6.00;99.90;;;;;;4999605;28;20061;-61
2020/12/21 05:58:46;;;;;;;13.57;2.70;;;5.90;99.90;;;;;;5001895;28;20040;-60
2020/12/21 06:01:13;;;;;;;14.63;3.17;;;6.00;99.90;;;;;;5000086;28;20395;-60
2020/12/21 06:04:03;;;;;;;14.65;3.10;;;5.90;99.90;;;;;;4998594;28;20038;-62
2020/12/21 06:06:32;;;;;;;18.10;2.53;;;6.00;99.90;;;;;;4998830;28;20077;-60
2020/12/21 06:08:59;;;;;;;18.58;2.35;;;6.00;99.90;;;;;;4998157;28;20308;-62
2020/12/21 06:11:34;;;;;;;15.20;2.90;;;6.00;99.90;;;;;;4999614;28;20026;-61
2020/12/21 06:14:04;;;;;;;9.40;2.20;;;6.00;99.90;;;;;;4999251;28;20506;-62
2020/12/21 06:16:31;;;;;;;;;;;6.00;99.90;;;;;;5000281;28;20102;-61
2020/12/21 06:18:59;;;;;;;18.67;2.60;;;6.00;99.90;;;;;;5001772;28;19936;-60
2020/12/21 06:21:37;;;;;;;7.53;1.92;;;6.10;99.90;;;;;;5001599;28;20040;-61
2020/12/21 06:24:15;;;;;;;21.27;2.63;;;6.00;99.90;;;;;;4999938;28;20400;-60
2020/12/21 06:26:41;;;;;;;25.23;4.35;;;6.10;99.90;;;;;;4999331;28;20790;-60
2020/12/21 06:29:13;;;;;;;11.45;2.50;;;6.10;99.90;;;;;;5000312;28;20129;-60
2020/12/21 06:31:44;;;;;;;9.15;2.25;;;6.10;99.90;;;;;;4999449;28;20072;-61
2020/12/21 06:34:14;;;;;;;12.48;2.13;;;6.10;99.90;;;;;;5000793;28;20030;-60
2020/12/21 06:36:40;;;;;;;12.32;2.70;;;6.20;99.90;;;;;;4999110;28;20124;-60
2020/12/21 06:39:06;;;;;;;9.70;2.05;;;6.20;99.90;;;;;;5000389;28;20194;-60
2020/12/21 06:41:33;;;;;;;11.63;2.60;;;6.20;99.90;;;;;;5000358;28;20045;-60
2020/12/21 06:44:05;;;;;;;12.13;1.70;;;6.20;99.90;;;;;;4999121;28;20034;-60
2020/12/21 06:46:32;;;;;;;8.90;2.20;;;6.10;99.90;;;;;;5000205;28;20038;-59
2020/12/21 06:49:10;;;;;;;11.40;2.15;;;6.20;99.90;;;;;;4999063;28;20034;-60
2020/12/21 06:51:41;;;;;;;14.82;2.25;;;6.20;99.90;;;;;;4999502;28;20456;-60
2020/12/21 06:54:09;;;;;;;8.38;1.80;;;6.20;99.90;;;;;;5000041;28;20058;-61
2020/12/21 06:56:35;;;;;;;15.57;2.03;;;6.20;99.90;;;;;;4999405;28;20030;-60
2020/12/21 06:59:01;;;;;;;8.73;2.40;;;6.30;99.90;;;;;;4999144;28;20122;-60
2020/12/21 07:01:28;;;;;;;8.25;1.42;;;6.30;99.90;;;;;;5000332;28;20038;-61
2020/12/21 07:03:55;;;;;;;12.55;2.53;;;6.30;99.90;;;;;;4998374;28;20053;-60
2020/12/21 07:06:21;;;;;;;6.90;1.50;;;6.40;99.90;;;;;;5000745;28;20021;-59
2020/12/21 07:08:47;;;;;;;10.68;1.75;;;6.40;99.90;;;;;;5001877;28;20041;-60
2020/12/21 07:11:17;;;;;;;6.90;1.42;;;6.40;99.90;;;;;;4993723;28;20026;-61
2020/12/21 07:13:44;;;;;;;16.57;2.73;;;6.40;99.90;;;;;;4998290;28;20041;-60
2020/12/21 07:16:10;;;;;;;17.98;2.15;;;6.50;99.90;;;;;;4996035;28;20376;-61
2020/12/21 07:18:36;;;;;;;5.45;1.40;;;6.40;99.90;;;;;;4998359;28;20490;-61
2020/12/21 07:21:06;;;;;;;13.25;2.03;;;6.40;99.90;;;;;;4993725;28;20039;-60
2020/12/21 07:23:32;;;;;;;6.30;2.28;;;6.40;99.90;;;;;;4995931;28;20046;-61
2020/12/21 07:25:58;;;;;;;12.00;1.63;;;6.40;99.90;;;;;;4993416;28;20646;-60
2020/12/21 07:28:27;;;;;;;9.32;1.95;;;6.40;99.90;;;;;;4990872;28;20033;-59
2020/12/21 07:30:52;;;;;;;13.63;1.80;;;6.40;99.90;;;;;;4993102;28;20045;-59
2020/12/21 07:33:18;;;;;;;6.18;1.83;;;6.40;99.90;;;;;;4991158;28;20049;-61
2020/12/21 07:35:54;;;;;;;9.68;1.92;;;6.40;99.90;;;;;;4992456;28;20045;-61
2020/12/21 07:38:22;;;;;;;9.82;1.90;;;6.40;99.90;;;;;;4991484;28;20026;-60
2020/12/21 07:40:48;;;;;;;16.85;2.03;;;6.50;99.90;;;;;;4992806;28;20411;-61
2020/12/21 07:43:20;;;;;;;7.03;1.70;;;6.50;99.90;;;;;;4993526;28;20030;-60
2020/12/21 07:45:47;;;;;;;7.55;2.03;;;6.50;99.90;;;;;;4990305;28;20498;-61
2020/12/21 07:48:13;;;;;;;11.88;2.15;;;6.50;99.90;;;;;;4993410;28;20065;-60
2020/12/21 07:50:40;;;;;;;8.20;2.33;;;6.60;99.90;;;;;;4998974;28;20064;-60
2020/12/21 07:53:05;;;;;;;11.50;1.88;;;6.60;99.90;;;;;;4997141;28;20646;-60
2020/12/21 07:55:31;;;;;;;9.52;1.85;;;6.70;99.90;;;;;;4994333;28;20121;-61
2020/12/21 07:57:57;;;;;;;11.52;1.75;;;6.70;99.90;;;;;;4999224;28;20037;-59
2020/12/21 08:00:22;;;;;;;11.38;1.83;;;6.70;99.90;;;;;;4993731;28;20045;-61
2020/12/21 08:02:51;;;;;;;12.32;3.08;;;6.70;99.90;;;;;;4991521;28;20470;-60
2020/12/21 08:05:20;;;;;;;12.43;2.92;;;6.80;99.90;;;;;;4986905;28;20042;-61
2020/12/21 08:07:46;;;;;;;11.45;2.35;;;6.90;99.90;;;;;;4998567;28;20427;-61
2020/12/21 08:10:18;;;;;;;8.65;1.88;;;6.80;99.90;;;;;;5000014;28;20033;-59
2020/12/21 08:12:44;;;;;;;12.27;2.40;;;6.90;99.90;;;;;;4998691;28;20237;-60
2020/12/21 08:15:10;;;;;;;12.95;2.45;;;6.90;99.90;;;;;;4999312;28;20479;-61
2020/12/21 08:17:35;;;;;;;9.10;2.15;;;7.00;99.90;;;;;;4993658;28;20065;-61
2020/12/21 08:20:06;;;;;;;7.72;2.38;;;6.90;99.90;;;;;;4996787;28;20537;-60
2020/12/21 08:22:32;;;;;;;9.80;2.05;;;7.00;99.90;;;;;;5000470;28;20030;-60
2020/12/21 08:24:59;;;;;;;12.55;2.42;;;7.00;99.90;;;;;;4995539;28;20035;-61
2020/12/21 08:27:25;;;;;;;10.07;2.95;;;7.00;99.90;;;;;;4996086;28;20158;-60
2020/12/21 08:29:51;;;;;;;9.57;2.42;;;7.00;99.90;;;;;;4996707;28;20535;-61
2020/12/21 08:32:16;;;;;;;12.40;2.85;;;7.10;99.90;;;;;;4999789;28;20073;-62
2020/12/21 08:34:43;;;;;;;11.30;3.42;;;7.10;99.90;;;;;;5000385;28;20038;-61
2020/12/21 08:37:08;;;;;;;11.43;2.90;;;7.20;99.90;;;;;;5002301;28;20084;-64
2020/12/21 08:39:34;;;;;;;13.68;2.80;;;7.20;99.90;;;;;;5002588;28;20034;-62
2020/12/21 08:42:00;;;;;;;6.45;3.00;;;7.30;99.90;;;;;;5002879;28;20033;-61
2020/12/21 08:44:27;;;;;;;10.02;3.13;;;7.30;99.90;;;;;;5003846;28;20038;-60
2020/12/21 08:47:03;;;;;;;8.63;3.13;;;7.40;99.90;;;;;;5001439;28;20121;-61
2020/12/21 08:49:33;;;;;;;13.57;3.33;;;7.40;99.90;;;;;;4977615;28;20046;-61
2020/12/21 08:52:10;;;;;;;14.23;3.55;;;7.50;99.90;;;;;;5014858;28;20510;-61
2020/12/21 08:54:40;;;;;;;11.70;3.03;;;7.50;99.90;;;;;;5003886;28;20108;-60
2020/12/21 08:57:12;;;;;;;15.57;3.78;;;7.50;99.90;;;;;;5001129;28;20152;-62
2020/12/21 08:59:40;;;;;;;12.27;3.22;;;7.60;99.90;;;;;;5006025;28;20398;-62
2020/12/21 09:02:06;;;;;;;10.68;2.72;;;7.60;99.90;;;;;;5000480;28;20430;-61
2020/12/21 09:04:33;;;;;;;8.15;3.45;;;7.60;99.90;;;;;;5007541;28;20087;-61
2020/12/21 09:06:59;;;;;;;8.73;2.70;;;7.60;99.90;;;;;;5001515;28;20029;-60
2020/12/21 09:09:24;;;;;;;9.48;3.22;;;7.60;99.90;;;;;;5000843;28;20038;-60
2020/12/21 09:11:53;;;;;;;10.15;2.80;;;7.70;99.90;;;;;;4993871;28;20550;-61
2020/12/21 09:14:24;;;;;;;9.45;2.67;;;7.70;99.90;;;;;;4998580;28;20038;-60
2020/12/21 09:16:49;;;;;;;7.93;2.47;;;7.70;99.90;;;;;;4999924;28;20577;-61
2020/12/21 09:19:15;;;;;;;8.35;2.95;;;7.80;99.90;;;;;;5002196;28;20030;-62
2020/12/21 09:21:41;;;;;;;9.80;2.80;;;7.80;99.90;;;;;;4999464;28;20495;-60
2020/12/21 09:24:07;;;;;;;8.10;2.42;;;7.80;99.90;;;;;;4995932;28;20468;-61
2020/12/21 09:26:32;;;;;;;9.18;3.13;;;7.70;99.90;;;;;;4998255;28;20062;-60
2020/12/21 09:28:58;;;;;;;10.95;3.08;;;7.80;99.90;;;;;;4996957;28;20179;-61
2020/12/21 09:31:24;;;;;;;10.95;3.40;;;7.80;99.90;;;;;;4998548;28;20046;-61
2020/12/21 09:33:51;;;;;;;9.25;2.95;;;7.80;99.90;;;;;;5003232;28;20214;-61
2020/12/21 09:36:17;;;;;;;16.23;4.28;;;7.80;99.90;;;;;;5003016;28;20033;-60
2020/12/21 09:38:44;;;;;;;11.02;3.20;;;7.80;99.90;;;;;;4999946;28;20038;-61
2020/12/21 09:41:16;;;;;;;13.68;3.83;;;7.70;99.90;;;;;;5004527;28;20034;-61
2020/12/21 09:43:43;;;;;;;9.18;3.00;;;7.70;99.90;;;;;;5004342;28;20041;-61
2020/12/21 09:46:09;;;;;;;13.18;4.07;;;7.70;99.90;;;;;;5005061;28;20030;-60
2020/12/21 09:48:36;;;;;;;11.25;3.15;;;7.70;99.90;;;;;;4997194;28;20044;-60
2020/12/21 09:51:01;;;;;;;9.10;2.60;;;7.70;99.90;;;;;;5003894;28;20034;-61
2020/12/21 09:53:27;;;;;;;8.27;3.10;;;7.70;99.90;;;;;;5000718;28;20136;-60
2020/12/21 09:55:52;;;;;;;9.77;3.25;;;7.70;99.90;;;;;;5004038;28;20107;-60
2020/12/21 09:58:18;;;;;;;13.85;3.33;;;7.70;99.90;;;;;;5003271;28;20045;-60
2020/12/21 10:00:43;;;;;;;10.00;2.70;;;7.70;99.90;;;;;;5001337;28;20065;-61
2020/12/21 10:03:09;;;;;;;10.68;2.58;;;7.70;99.90;;;;;;5000276;28;20073;-61
2020/12/21 10:05:34;;;;;;;11.48;3.80;;;7.70;99.90;;;;;;5001868;28;20070;-62
2020/12/21 10:08:00;;;;;;;9.63;2.80;;;7.70;99.90;;;;;;5003389;28;20033;-61
2020/12/21 10:10:25;;;;;;;13.00;2.60;;;7.80;99.90;;;;;;5001471;28;20537;-61
2020/12/21 10:12:51;;;;;;;18.27;3.35;;;7.80;99.90;;;;;;5002189;28;20406;-61
2020/12/21 10:15:17;;;;;;;8.30;2.75;;;7.80;99.90;;;;;;5000210;28;20034;-60
2020/12/21 10:17:42;;;;;;;7.88;2.70;;;7.80;99.90;;;;;;4996693;28;20037;-60
2020/12/21 10:20:08;;;;;;;8.85;2.55;;;7.80;99.90;;;;;;4994945;28;20061;-60
2020/12/21 10:22:33;;;;;;;11.52;2.25;;;7.80;99.90;;;;;;4995940;28;20057;-61
2020/12/21 10:24:59;;;;;;;13.50;2.90;;;7.80;99.90;;;;;;4995199;28;20088;-61
2020/12/21 10:27:24;;;;;;;12.30;1.98;;;7.80;99.90;;;;;;4998669;28;20620;-61
2020/12/21 10:29:50;;;;;;;9.95;2.20;;;7.80;99.90;;;;;;5003404;28;20185;-61
2020/12/21 10:32:16;;;;;;;11.38;2.58;;;7.80;99.90;;;;;;5002210;28;20034;-60
2020/12/21 10:34:42;;;;;;;8.95;3.13;;;7.80;99.90;;;;;;4999531;28;20113;-60
2020/12/21 10:37:07;;;;;;;5.53;2.53;;;7.80;99.90;;;;;;5003515;28;20072;-61
2020/12/21 10:39:33;;;;;;;5.50;1.90;;;7.80;99.90;;;;;;5002222;28;20057;-61
2020/12/21 10:41:58;;;;;;;12.20;2.97;;;7.80;99.90;;;;;;5001527;28;20060;-61
2020/12/21 10:44:24;;;;;;;12.23;2.38;;;7.80;99.90;;;;;;5000638;28;20137;-60
2020/12/21 10:46:49;;;;;;;9.40;2.42;;;7.80;99.90;;;;;;5001849;28;20450;-63
2020/12/21 10:49:15;;;;;;;12.77;3.38;;;7.80;99.90;;;;;;5002122;28;20046;-60
2020/12/21 10:51:40;;;;;;;6.47;1.70;;;7.80;99.90;;;;;;5002652;28;20446;-60
2020/12/21 10:54:06;;;;;;;6.65;1.80;;;7.80;99.90;;;;;;5002059;28;20042;-59
2020/12/21 10:56:31;;;;;;;10.10;2.88;;;7.80;99.90;;;;;;4999919;28;20034;-61
2020/12/21 10:58:57;;;;;;;4.10;1.73;;;7.90;99.90;;;;;;5000812;28;20061;-60
2020/12/21 11:01:22;;;;;;;6.60;1.73;;;7.80;99.90;;;;;;4996885;28;20053;-60
2020/12/21 11:03:48;;;;;;;18.88;2.53;;;7.80;99.90;;;;;;5000489;28;20037;-61
2020/12/21 11:06:22;;;;;;;11.95;2.20;;;7.90;99.90;;;;;;5001235;28;20041;-60
2020/12/21 11:08:48;;;;;;;8.48;2.13;;;7.90;99.90;;;;;;5001255;28;20045;-59
2020/12/21 11:11:13;;;;;;;6.95;2.58;;;7.80;99.90;;;;;;5000636;28;20042;-60
2020/12/21 11:13:41;;;;;;;8.05;1.40;;;7.80;99.90;;;;;;4999312;28;20044;-59
2020/12/21 11:16:09;;;;;;;6.82;1.90;;;7.80;99.90;;;;;;5002030;28;20084;-61
2020/12/21 11:18:35;;;;;;;8.48;2.03;;;7.90;99.90;;;;;;4994368;28;20069;-59
2020/12/21 11:21:01;;;;;;;10.63;1.58;;;7.90;99.90;;;;;;4995312;28;20379;-62
2020/12/21 11:23:26;;;;;;;11.63;2.22;;;7.90;99.90;;;;;;4999859;28;20488;-60
2020/12/21 11:25:52;;;;;;;7.97;2.10;;;7.90;99.90;;;;;;4999703;28;20558;-60
2020/12/21 11:28:17;;;;;;;10.70;2.83;;;7.90;99.90;;;;;;4996479;28;20121;-60
2020/12/21 11:30:43;;;;;;;7.93;2.08;;;7.90;99.90;;;;;;4995021;28;20050;-59
2020/12/21 11:33:08;;;;;;;8.23;2.20;;;7.90;99.90;;;;;;4995023;28;20442;-60
2020/12/21 11:35:34;;;;;;;5.68;1.73;;;7.90;99.90;;;;;;5000550;28;20549;-60
2020/12/21 11:37:59;;;;;;;10.05;1.90;;;7.90;99.90;;;;;;5001934;28;20088;-61
2020/12/21 11:40:25;;;;;;;14.20;1.98;;;8.00;99.90;;;;;;4999291;28;20092;-59
2020/12/21 11:42:51;;;;;;;8.80;2.30;;;7.90;99.90;;;;;;5000942;28;20035;-59
2020/12/21 11:45:16;;;;;;;9.93;1.67;;;7.90;99.90;;;;;;4999954;28;20551;-60
2020/12/21 11:47:42;;;;;;;6.45;1.73;;;7.90;99.90;;;;;;5001687;28;20037;-61
2020/12/21 11:50:08;;;;;;;6.15;2.50;;;7.90;99.90;;;;;;5000355;28;20407;-60
2020/12/21 11:52:33;;;;;;;12.40;2.30;;;8.00;99.90;;;;;;4998561;28;20565;-60
2020/12/21 11:54:59;;;;;;;5.00;1.67;;;7.90;99.90;;;;;;4999557;28;20029;-61
2020/12/21 11:57:27;;;;;;;12.23;2.63;;;8.00;99.90;;;;;;4996373;28;20037;-61
2020/12/21 11:59:54;;;;;;;13.55;1.95;;;8.00;99.90;;;;;;4998985;28;20022;-61
2020/12/21 12:02:19;;;;;;;4.22;1.73;;;8.10;99.90;;;;;;4996723;28;20113;-61
2020/12/21 12:04:45;;;;;;;7.50;1.40;;;8.00;99.90;;;;;;4994221;28;20610;-60
2020/12/21 12:07:11;;;;;;;9.25;2.00;;;8.00;99.90;;;;;;4999633;28;20048;-60
2020/12/21 12:09:36;;;;;;;5.78;1.63;;;8.00;99.90;;;;;;4996487;28;20121;-60
2020/12/21 12:12:02;;;;;;;8.77;1.60;;;8.00;99.90;;;;;;4998882;28;20036;-60
2020/12/21 12:14:28;;;;;;;10.10;1.38;;;8.00;99.90;;;;;;5001568;28;20483;-60
2020/12/21 12:16:57;;;;;;;12.23;1.60;;;8.10;99.90;;;;;;5003287;28;20061;-60
2020/12/21 12:19:25;;;;;;;8.05;1.70;;;8.10;99.90;;;;;;4999640;28;20039;-60
2020/12/21 12:21:51;;;;;;;4.88;1.42;;;8.10;99.90;;;;;;5001285;28;20125;-60
2020/12/21 12:24:16;;;;;;;11.75;2.20;;;8.10;99.90;;;;;;4998337;28;20054;-59
2020/12/21 12:26:42;;;;;;;9.65;1.52;;;8.10;99.90;;;;;;5001979;28;20065;-61
2020/12/21 12:29:08;;;;;;;9.23;1.70;;;8.10;99.90;;;;;;5000934;28;20087;-62
2020/12/21 12:31:33;;;;;;;5.07;1.58;;;8.10;99.90;;;;;;5002144;28;20037;-61
2020/12/21 12:33:59;;;;;;;6.53;1.40;;;8.10;99.90;;;;;;4999958;28;20030;-59
2020/12/21 12:36:26;;;;;;;7.88;2.13;;;8.10;99.90;;;;;;5002708;28;20502;-60
2020/12/21 12:38:53;;;;;;;7.75;1.23;;;8.20;99.90;;;;;;5001038;28;20081;-60
2020/12/21 12:41:19;;;;;;;9.70;1.80;;;8.20;99.90;;;;;;5002042;28;20053;-60
2020/12/21 12:43:45;;;;;;;4.95;1.30;;;8.20;99.90;;;;;;4998812;28;20054;-60
2020/12/21 12:46:11;;;;;;;6.63;1.95;;;8.20;99.90;;;;;;4999874;28;20068;-59
2020/12/21 12:48:37;;;;;;;5.35;1.38;;;8.20;99.90;;;;;;5000758;28;20054;-59
2020/12/21 12:51:03;;;;;;;5.32;1.75;;;8.20;99.90;;;;;;5002910;28;20037;-59
2020/12/21 12:53:29;;;;;;;8.30;1.92;;;8.30;99.90;;;;;;4999253;28;20080;-60